Main page
METAR-TAF:

METAR-TAF

Airports :

Alicante–Elche Airport

Alicante, Spain

latitude: 38-17N, longitude: 000-33W, elevation: 43 m

Current weather observation

The report was made 24 minutes ago, at 19:00 UTC
Wind 9 kt from the East/Northeast
Temperature 26°C
Humidity 79%
Pressure 1014 hPa
Visibility 10 km or more
Few clouds at a height of 1500 ft

METAR: LEAL 281900Z 07009KT 9999 FEW015 26/22 Q1014 NOSIG

Time: 21:24 (19:24 UTC)

Forecast

The report was made 2 hours and 24 minutes ago, at 17:00 UTC
Forecast valid from 28 at 18 UTC to 29 at 18 UTC
Wind 10 kt from the East
Visibility 10 km or more
Scattered clouds at a height of 2000 ft
Becoming
from 28 at 20 UTC to 28 at 23 UTC
Wind 3 kt from the North/Northwest
Becoming
from 29 at 08 UTC to 29 at 10 UTC
Wind 10 kt from the East

TAF: LEAL 281700Z 2818/2918 08010KT 9999 SCT020 TX30/2912Z TN20/2906Z BECMG 2820/2823 34003KT BECMG 2908/2910 09010KT

Weather observations and forecasts of more than 4000 airports (METAR and TAF reports).

The available stations are represented by yellow and red dots on the map.

Hover mouse over dot to see the name of the station.

Then click to see weather observations and forecasts.

To change the map : click on the green buttons with a black cross to zoom in, on the green button with a dash to zoom out, or on the green arrows for adjacent maps.


METAR-TAF: